sensor_id;sensor_type;location;lat;lon;timestamp;temperature;humidity
49829;DHT22;35723;51.194;5.112;2023-04-25T00:01:05;9.90;99.90
49829;DHT22;35723;51.194;5.112;2023-04-25T00:03:31;9.90;99.90
49829;DHT22;35723;51.194;5.112;2023-04-25T00:05:58;10.00;99.90
49829;DHT22;35723;51.194;5.112;2023-04-25T00:08:27;10.00;99.90
49829;DHT22;35723;51.194;5.112;2023-04-25T00:10:52;10.00;99.90
49829;DHT22;35723;51.194;5.112;2023-04-25T00:13:18;10.00;99.90
49829;DHT22;35723;51.194;5.112;2023-04-25T00:15:44;9.80;99.90
49829;DHT22;35723;51.194;5.112;2023-04-25T00:18:13;9.90;99.90
49829;DHT22;35723;51.194;5.112;2023-04-25T00:20:39;10.00;99.90
49829;DHT22;35723;51.194;5.112;2023-04-25T00:23:05;10.00;99.90
49829;DHT22;35723;51.194;5.112;2023-04-25T00:25:31;10.00;99.90
49829;DHT22;35723;51.194;5.112;2023-04-25T00:27:57;10.10;99.90
49829;DHT22;35723;51.194;5.112;2023-04-25T00:30:22;10.10;99.90
49829;DHT22;35723;51.194;5.112;2023-04-25T00:32:48;10.00;99.90
49829;DHT22;35723;51.194;5.112;2023-04-25T00:35:14;10.00;99.90
49829;DHT22;35723;51.194;5.112;2023-04-25T00:37:40;10.00;99.90
49829;DHT22;35723;51.194;5.112;2023-04-25T00:40:06;10.00;99.90
49829;DHT22;35723;51.194;5.112;2023-04-25T00:42:32;9.80;99.90
49829;DHT22;35723;51.194;5.112;2023-04-25T00:44:59;9.90;99.90
49829;DHT22;35723;51.194;5.112;2023-04-25T00:47:25;9.80;99.90
49829;DHT22;35723;51.194;5.112;2023-04-25T00:49:51;9.80;99.90
49829;DHT22;35723;51.194;5.112;2023-04-25T00:52:19;9.80;99.90
49829;DHT22;35723;51.194;5.112;2023-04-25T00:54:45;9.80;99.90
49829;DHT22;35723;51.194;5.112;2023-04-25T00:57:10;9.70;99.90
49829;DHT22;35723;51.194;5.112;2023-04-25T00:59:37;9.70;99.90
49829;DHT22;35723;51.194;5.112;2023-04-25T01:02:04;9.70;99.90
49829;DHT22;35723;51.194;5.112;2023-04-25T01:04:30;9.60;99.90
49829;DHT22;35723;51.194;5.112;2023-04-25T01:06:56;9.60;99.90
49829;DHT22;35723;51.194;5.112;2023-04-25T01:09:23;9.60;99.90
49829;DHT22;35723;51.194;5.112;2023-04-25T01:11:49;9.60;99.90
49829;DHT22;35723;51.194;5.112;2023-04-25T01:14:15;9.50;99.90
49829;DHT22;35723;51.194;5.112;2023-04-25T01:16:41;9.40;99.90
49829;DHT22;35723;51.194;5.112;2023-04-25T01:19:09;9.40;99.90
49829;DHT22;35723;51.194;5.112;2023-04-25T01:21:38;9.40;99.90
49829;DHT22;35723;51.194;5.112;2023-04-25T01:24:04;9.40;99.90
49829;DHT22;35723;51.194;5.112;2023-04-25T01:26:30;9.40;99.90
49829;DHT22;35723;51.194;5.112;2023-04-25T01:28:57;9.40;99.90
49829;DHT22;35723;51.194;5.112;2023-04-25T01:31:23;9.40;99.90
49829;DHT22;35723;51.194;5.112;2023-04-25T01:33:49;9.30;99.90
49829;DHT22;35723;51.194;5.112;2023-04-25T01:36:15;9.30;99.90
49829;DHT22;35723;51.194;5.112;2023-04-25T01:38:41;9.20;99.90
49829;DHT22;35723;51.194;5.112;2023-04-25T01:41:07;9.20;99.90
49829;DHT22;35723;51.194;5.112;2023-04-25T01:43:33;9.20;99.90
49829;DHT22;35723;51.194;5.112;2023-04-25T01:45:58;9.20;99.90
49829;DHT22;35723;51.194;5.112;2023-04-25T01:48:24;9.10;99.90
49829;DHT22;35723;51.194;5.112;2023-04-25T01:50:50;9.10;99.90
49829;DHT22;35723;51.194;5.112;2023-04-25T01:53:16;9.10;99.90
49829;DHT22;35723;51.194;5.112;2023-04-25T01:55:42;9.10;99.90
49829;DHT22;35723;51.194;5.112;2023-04-25T01:58:08;9.20;99.90
49829;DHT22;35723;51.194;5.112;2023-04-25T02:00:35;9.10;99.90
49829;DHT22;35723;51.194;5.112;2023-04-25T02:03:04;9.20;99.90
49829;DHT22;35723;51.194;5.112;2023-04-25T02:05:34;9.20;99.90
49829;DHT22;35723;51.194;5.112;2023-04-25T02:08:01;9.20;99.90
49829;DHT22;35723;51.194;5.112;2023-04-25T02:10:26;9.20;99.90
49829;DHT22;35723;51.194;5.112;2023-04-25T02:12:52;9.20;99.90
49829;DHT22;35723;51.194;5.112;2023-04-25T02:15:18;9.20;99.90
49829;DHT22;35723;51.194;5.112;2023-04-25T02:17:43;9.20;99.90
49829;DHT22;35723;51.194;5.112;2023-04-25T02:20:11;9.20;99.90
49829;DHT22;35723;51.194;5.112;2023-04-25T02:22:36;9.20;99.90
49829;DHT22;35723;51.194;5.112;2023-04-25T02:25:02;9.20;99.90
49829;DHT22;35723;51.194;5.112;2023-04-25T02:27:30;9.20;99.90
49829;DHT22;35723;51.194;5.112;2023-04-25T02:29:56;9.20;99.90
49829;DHT22;35723;51.194;5.112;2023-04-25T02:32:21;9.30;99.90
49829;DHT22;35723;51.194;5.112;2023-04-25T02:34:47;9.30;99.90
49829;DHT22;35723;51.194;5.112;2023-04-25T02:37:13;9.30;99.90
49829;DHT22;35723;51.194;5.112;2023-04-25T02:39:39;9.30;99.90
49829;DHT22;35723;51.194;5.112;2023-04-25T02:42:05;9.30;99.90
49829;DHT22;35723;51.194;5.112;2023-04-25T02:44:30;9.40;99.90
49829;DHT22;35723;51.194;5.112;2023-04-25T02:46:56;9.30;99.90
49829;DHT22;35723;51.194;5.112;2023-04-25T02:49:21;9.40;99.90
49829;DHT22;35723;51.194;5.112;2023-04-25T02:51:47;9.40;99.90
49829;DHT22;35723;51.194;5.112;2023-04-25T02:54:13;9.40;99.90
49829;DHT22;35723;51.194;5.112;2023-04-25T02:56:38;9.40;99.90
49829;DHT22;35723;51.194;5.112;2023-04-25T02:59:04;9.40;99.90
49829;DHT22;35723;51.194;5.112;2023-04-25T03:01:30;9.40;99.90
49829;DHT22;35723;51.194;5.112;2023-04-25T03:03:55;9.50;99.90
49829;DHT22;35723;51.194;5.112;2023-04-25T03:06:21;9.50;99.90
49829;DHT22;35723;51.194;5.112;2023-04-25T03:08:46;9.40;99.90
49829;DHT22;35723;51.194;5.112;2023-04-25T03:11:12;9.50;99.90
49829;DHT22;35723;51.194;5.112;2023-04-25T03:13:38;9.50;99.90
49829;DHT22;35723;51.194;5.112;2023-04-25T03:16:04;9.50;99.90
49829;DHT22;35723;51.194;5.112;2023-04-25T03:18:29;9.50;99.90
49829;DHT22;35723;51.194;5.112;2023-04-25T03:20:55;9.50;99.90
49829;DHT22;35723;51.194;5.112;2023-04-25T03:23:21;9.50;99.90
49829;DHT22;35723;51.194;5.112;2023-04-25T03:25:46;9.40;99.90
49829;DHT22;35723;51.194;5.112;2023-04-25T03:28:12;9.30;99.90
49829;DHT22;35723;51.194;5.112;2023-04-25T03:30:38;9.40;99.90
49829;DHT22;35723;51.194;5.112;2023-04-25T03:33:03;9.50;99.90
49829;DHT22;35723;51.194;5.112;2023-04-25T03:35:29;9.40;99.90
49829;DHT22;35723;51.194;5.112;2023-04-25T03:37:55;9.30;99.90
49829;DHT22;35723;51.194;5.112;2023-04-25T03:40:21;9.30;99.90
49829;DHT22;35723;51.194;5.112;2023-04-25T03:42:46;9.30;99.90
49829;DHT22;35723;51.194;5.112;2023-04-25T03:45:12;9.30;99.90
49829;DHT22;35723;51.194;5.112;2023-04-25T03:47:38;9.20;99.90
49829;DHT22;35723;51.194;5.112;2023-04-25T03:50:03;9.10;99.90
49829;DHT22;35723;51.194;5.112;2023-04-25T03:52:29;9.10;99.90
49829;DHT22;35723;51.194;5.112;2023-04-25T03:54:55;9.20;99.90
49829;DHT22;35723;51.194;5.112;2023-04-25T03:57:20;9.20;99.90
49829;DHT22;35723;51.194;5.112;2023-04-25T03:59:46;9.30;99.90
49829;DHT22;35723;51.194;5.112;2023-04-25T04:02:12;9.20;99.90
49829;DHT22;35723;51.194;5.112;2023-04-25T04:04:37;9.20;99.90
49829;DHT22;35723;51.194;5.112;2023-04-25T04:07:03;9.20;99.90
49829;DHT22;35723;51.194;5.112;2023-04-25T04:09:29;9.10;99.90
49829;DHT22;35723;51.194;5.112;2023-04-25T04:11:55;9.00;99.90
49829;DHT22;35723;51.194;5.112;2023-04-25T04:14:20;9.00;99.90
49829;DHT22;35723;51.194;5.112;2023-04-25T04:16:46;9.10;99.90
49829;DHT22;35723;51.194;5.112;2023-04-25T04:19:12;9.20;99.90
49829;DHT22;35723;51.194;5.112;2023-04-25T04:21:37;9.10;99.90
49829;DHT22;35723;51.194;5.112;2023-04-25T04:24:03;9.10;99.90
49829;DHT22;35723;51.194;5.112;2023-04-25T04:26:29;9.10;99.90
49829;DHT22;35723;51.194;5.112;2023-04-25T04:28:54;9.10;99.90
49829;DHT22;35723;51.194;5.112;2023-04-25T04:31:21;9.10;99.90
49829;DHT22;35723;51.194;5.112;2023-04-25T04:33:47;9.10;99.90
49829;DHT22;35723;51.194;5.112;2023-04-25T04:36:13;9.10;99.90
49829;DHT22;35723;51.194;5.112;2023-04-25T04:38:39;9.10;99.90
49829;DHT22;35723;51.194;5.112;2023-04-25T04:41:05;9.10;99.90
49829;DHT22;35723;51.194;5.112;2023-04-25T04:43:31;9.00;99.90
49829;DHT22;35723;51.194;5.112;2023-04-25T04:46:01;9.00;99.90
49829;DHT22;35723;51.194;5.112;2023-04-25T04:48:28;9.00;99.90
49829;DHT22;35723;51.194;5.112;2023-04-25T04:50:58;9.00;99.90
49829;DHT22;35723;51.194;5.112;2023-04-25T04:53:23;9.00;99.90
49829;DHT22;35723;51.194;5.112;2023-04-25T04:55:49;9.00;99.90
49829;DHT22;35723;51.194;5.112;2023-04-25T04:58:15;9.00;99.90
49829;DHT22;35723;51.194;5.112;2023-04-25T05:00:41;9.00;99.90
49829;DHT22;35723;51.194;5.112;2023-04-25T05:03:06;9.00;99.90
49829;DHT22;35723;51.194;5.112;2023-04-25T05:05:32;9.00;99.90
49829;DHT22;35723;51.194;5.112;2023-04-25T05:07:58;8.90;99.90
49829;DHT22;35723;51.194;5.112;2023-04-25T05:10:25;8.90;99.90
49829;DHT22;35723;51.194;5.112;2023-04-25T05:12:51;9.00;99.90
49829;DHT22;35723;51.194;5.112;2023-04-25T05:15:17;9.00;99.90
49829;DHT22;35723;51.194;5.112;2023-04-25T05:17:42;9.10;99.90
49829;DHT22;35723;51.194;5.112;2023-04-25T05:20:08;9.00;99.90
49829;DHT22;35723;51.194;5.112;2023-04-25T05:22:35;9.00;99.90
49829;DHT22;35723;51.194;5.112;2023-04-25T05:25:01;8.90;99.90
49829;DHT22;35723;51.194;5.112;2023-04-25T05:27:26;9.00;99.90
49829;DHT22;35723;51.194;5.112;2023-04-25T05:29:52;9.10;99.90
49829;DHT22;35723;51.194;5.112;2023-04-25T05:32:18;9.10;99.90
49829;DHT22;35723;51.194;5.112;2023-04-25T05:34:43;9.10;99.90
49829;DHT22;35723;51.194;5.112;2023-04-25T05:37:09;9.10;99.90
49829;DHT22;35723;51.194;5.112;2023-04-25T05:39:35;9.10;99.90
49829;DHT22;35723;51.194;5.112;2023-04-25T05:42:01;9.20;99.90
49829;DHT22;35723;51.194;5.112;2023-04-25T05:44:26;9.20;99.90
49829;DHT22;35723;51.194;5.112;2023-04-25T05:46:52;9.20;99.90
49829;DHT22;35723;51.194;5.112;2023-04-25T05:49:18;9.30;99.90
49829;DHT22;35723;51.194;5.112;2023-04-25T05:51:43;9.30;99.90
49829;DHT22;35723;51.194;5.112;2023-04-25T05:54:09;9.30;99.90
49829;DHT22;35723;51.194;5.112;2023-04-25T05:56:35;9.30;99.90
49829;DHT22;35723;51.194;5.112;2023-04-25T05:59:00;9.40;99.90
49829;DHT22;35723;51.194;5.112;2023-04-25T06:01:26;9.40;99.90
49829;DHT22;35723;51.194;5.112;2023-04-25T06:03:52;9.50;99.90
49829;DHT22;35723;51.194;5.112;2023-04-25T06:06:18;9.50;99.90
49829;DHT22;35723;51.194;5.112;2023-04-25T06:08:44;9.50;99.90
49829;DHT22;35723;51.194;5.112;2023-04-25T06:11:10;9.50;99.90
49829;DHT22;35723;51.194;5.112;2023-04-25T06:13:36;9.50;99.90
49829;DHT22;35723;51.194;5.112;2023-04-25T06:16:01;9.50;99.90
49829;DHT22;35723;51.194;5.112;2023-04-25T06:18:27;9.60;99.90
49829;DHT22;35723;51.194;5.112;2023-04-25T06:20:52;9.70;99.90
49829;DHT22;35723;51.194;5.112;2023-04-25T06:23:18;9.60;99.90
49829;DHT22;35723;51.194;5.112;2023-04-25T06:25:44;9.60;99.90
49829;DHT22;35723;51.194;5.112;2023-04-25T06:28:09;9.60;99.90
49829;DHT22;35723;51.194;5.112;2023-04-25T06:30:35;9.70;99.90
49829;DHT22;35723;51.194;5.112;2023-04-25T06:33:01;9.70;99.90
49829;DHT22;35723;51.194;5.112;2023-04-25T06:35:26;9.70;99.90
49829;DHT22;35723;51.194;5.112;2023-04-25T06:37:52;9.80;99.90
49829;DHT22;35723;51.194;5.112;2023-04-25T06:40:17;9.80;99.90
49829;DHT22;35723;51.194;5.112;2023-04-25T06:42:43;9.80;99.90
49829;DHT22;35723;51.194;5.112;2023-04-25T06:45:09;9.90;99.90
49829;DHT22;35723;51.194;5.112;2023-04-25T06:47:35;9.90;99.90
49829;DHT22;35723;51.194;5.112;2023-04-25T06:50:00;10.00;99.90
49829;DHT22;35723;51.194;5.112;2023-04-25T06:52:26;9.90;99.90
49829;DHT22;35723;51.194;5.112;2023-04-25T06:54:51;10.00;99.90
49829;DHT22;35723;51.194;5.112;2023-04-25T06:57:17;10.00;99.90
49829;DHT22;35723;51.194;5.112;2023-04-25T06:59:43;10.10;99.90
49829;DHT22;35723;51.194;5.112;2023-04-25T07:02:08;10.10;99.90
49829;DHT22;35723;51.194;5.112;2023-04-25T07:04:34;10.10;99.90
49829;DHT22;35723;51.194;5.112;2023-04-25T07:07:00;10.10;99.90
49829;DHT22;35723;51.194;5.112;2023-04-25T07:09:28;10.10;99.90
49829;DHT22;35723;51.194;5.112;2023-04-25T07:11:53;10.10;99.90
49829;DHT22;35723;51.194;5.112;2023-04-25T07:14:19;10.20;99.90
49829;DHT22;35723;51.194;5.112;2023-04-25T07:16:45;10.20;99.90
49829;DHT22;35723;51.194;5.112;2023-04-25T07:19:11;10.20;99.90
49829;DHT22;35723;51.194;5.112;2023-04-25T07:21:36;10.20;99.90
49829;DHT22;35723;51.194;5.112;2023-04-25T07:24:02;10.20;99.90
49829;DHT22;35723;51.194;5.112;2023-04-25T07:26:28;10.20;99.90
49829;DHT22;35723;51.194;5.112;2023-04-25T07:28:53;10.30;99.90
49829;DHT22;35723;51.194;5.112;2023-04-25T07:31:20;10.30;99.90
49829;DHT22;35723;51.194;5.112;2023-04-25T07:33:45;10.30;99.90
49829;DHT22;35723;51.194;5.112;2023-04-25T07:36:12;10.30;99.90
49829;DHT22;35723;51.194;5.112;2023-04-25T07:38:38;10.30;99.90
49829;DHT22;35723;51.194;5.112;2023-04-25T07:41:04;10.40;99.90
49829;DHT22;35723;51.194;5.112;2023-04-25T07:43:29;10.30;99.90
49829;DHT22;35723;51.194;5.112;2023-04-25T07:45:56;10.30;99.90
49829;DHT22;35723;51.194;5.112;2023-04-25T07:48:22;10.30;99.90
49829;DHT22;35723;51.194;5.112;2023-04-25T07:50:48;10.40;99.90
49829;DHT22;35723;51.194;5.112;2023-04-25T07:53:14;10.30;99.90
49829;DHT22;35723;51.194;5.112;2023-04-25T07:55:40;10.40;99.90
49829;DHT22;35723;51.194;5.112;2023-04-25T07:58:09;10.50;99.90
49829;DHT22;35723;51.194;5.112;2023-04-25T08:00:35;10.40;99.90
49829;DHT22;35723;51.194;5.112;2023-04-25T08:03:01;10.40;99.90
49829;DHT22;35723;51.194;5.112;2023-04-25T08:05:28;10.40;99.90
49829;DHT22;35723;51.194;5.112;2023-04-25T08:07:53;10.40;99.90
49829;DHT22;35723;51.194;5.112;2023-04-25T08:10:19;10.50;99.90
49829;DHT22;35723;51.194;5.112;2023-04-25T08:12:46;10.50;99.90
49829;DHT22;35723;51.194;5.112;2023-04-25T08:15:11;10.60;99.90
49829;DHT22;35723;51.194;5.112;2023-04-25T08:17:39;10.60;99.90
49829;DHT22;35723;51.194;5.112;2023-04-25T08:20:05;10.70;99.90
49829;DHT22;35723;51.194;5.112;2023-04-25T08:22:31;10.70;99.90
49829;DHT22;35723;51.194;5.112;2023-04-25T08:24:57;10.80;99.90
49829;DHT22;35723;51.194;5.112;2023-04-25T08:27:22;10.80;99.90
49829;DHT22;35723;51.194;5.112;2023-04-25T08:29:49;10.90;99.90
49829;DHT22;35723;51.194;5.112;2023-04-25T08:32:16;11.00;99.90
49829;DHT22;35723;51.194;5.112;2023-04-25T08:34:41;11.00;99.90
49829;DHT22;35723;51.194;5.112;2023-04-25T08:37:09;11.00;99.90
49829;DHT22;35723;51.194;5.112;2023-04-25T08:39:36;11.10;99.90
49829;DHT22;35723;51.194;5.112;2023-04-25T08:42:03;11.10;99.90
49829;DHT22;35723;51.194;5.112;2023-04-25T08:44:33;11.10;99.90
49829;DHT22;35723;51.194;5.112;2023-04-25T08:46:59;11.20;99.90
49829;DHT22;35723;51.194;5.112;2023-04-25T08:49:25;11.30;99.90
49829;DHT22;35723;51.194;5.112;2023-04-25T08:51:52;11.40;99.90
49829;DHT22;35723;51.194;5.112;2023-04-25T08:54:20;11.50;99.90
49829;DHT22;35723;51.194;5.112;2023-04-25T08:56:49;11.60;99.90
49829;DHT22;35723;51.194;5.112;2023-04-25T08:59:15;11.60;99.90
49829;DHT22;35723;51.194;5.112;2023-04-25T09:01:40;11.60;99.90
49829;DHT22;35723;51.194;5.112;2023-04-25T09:04:06;11.60;99.90
49829;DHT22;35723;51.194;5.112;2023-04-25T09:06:32;11.60;99.90
49829;DHT22;35723;51.194;5.112;2023-04-25T09:09:04;11.60;99.90
49829;DHT22;35723;51.194;5.112;2023-04-25T09:11:30;11.60;99.90
49829;DHT22;35723;51.194;5.112;2023-04-25T09:14:12;11.50;99.90
49829;DHT22;35723;51.194;5.112;2023-04-25T09:19:24;11.50;99.90
49829;DHT22;35723;51.194;5.112;2023-04-25T09:21:50;11.30;99.90
49829;DHT22;35723;51.194;5.112;2023-04-25T09:24:20;11.30;99.90
49829;DHT22;35723;51.194;5.112;2023-04-25T09:26:55;11.20;99.90
49829;DHT22;35723;51.194;5.112;2023-04-25T09:29:31;11.10;99.90
49829;DHT22;35723;51.194;5.112;2023-04-25T09:32:20;11.00;99.90
49829;DHT22;35723;51.194;5.112;2023-04-25T09:34:52;11.00;99.90
49829;DHT22;35723;51.194;5.112;2023-04-25T09:37:23;10.90;99.90
49829;DHT22;35723;51.194;5.112;2023-04-25T09:39:56;10.90;99.90
49829;DHT22;35723;51.194;5.112;2023-04-25T09:42:23;10.80;99.90
49829;DHT22;35723;51.194;5.112;2023-04-25T09:44:52;10.70;99.90
49829;DHT22;35723;51.194;5.112;2023-04-25T09:47:18;10.70;99.90
49829;DHT22;35723;51.194;5.112;2023-04-25T09:49:47;10.60;99.90
49829;DHT22;35723;51.194;5.112;2023-04-25T09:52:17;10.60;99.90
49829;DHT22;35723;51.194;5.112;2023-04-25T09:54:48;10.60;99.90
49829;DHT22;35723;51.194;5.112;2023-04-25T09:57:23;10.60;99.90
49829;DHT22;35723;51.194;5.112;2023-04-25T09:59:50;10.70;99.90
49829;DHT22;35723;51.194;5.112;2023-04-25T10:02:18;10.70;99.90
49829;DHT22;35723;51.194;5.112;2023-04-25T10:04:48;10.80;99.90
49829;DHT22;35723;51.194;5.112;2023-04-25T10:07:14;10.70;99.90
49829;DHT22;35723;51.194;5.112;2023-04-25T10:09:40;10.70;99.90
49829;DHT22;35723;51.194;5.112;2023-04-25T10:12:07;10.80;99.90
49829;DHT22;35723;51.194;5.112;2023-04-25T10:14:34;10.80;99.90
49829;DHT22;35723;51.194;5.112;2023-04-25T10:17:00;10.90;99.90
49829;DHT22;35723;51.194;5.112;2023-04-25T10:19:27;10.90;99.90
49829;DHT22;35723;51.194;5.112;2023-04-25T10:22:04;11.00;99.90
49829;DHT22;35723;51.194;5.112;2023-04-25T10:24:31;11.00;99.90
49829;DHT22;35723;51.194;5.112;2023-04-25T10:26:58;11.10;99.90
49829;DHT22;35723;51.194;5.112;2023-04-25T10:29:26;11.20;99.90
49829;DHT22;35723;51.194;5.112;2023-04-25T10:31:52;11.30;99.90
49829;DHT22;35723;51.194;5.112;2023-04-25T10:34:23;11.40;99.90
49829;DHT22;35723;51.194;5.112;2023-04-25T10:36:51;11.40;99.90
49829;DHT22;35723;51.194;5.112;2023-04-25T10:39:26;11.40;99.90
49829;DHT22;35723;51.194;5.112;2023-04-25T10:41:56;11.50;99.90
49829;DHT22;35723;51.194;5.112;2023-04-25T10:44:26;11.70;99.90
49829;DHT22;35723;51.194;5.112;2023-04-25T10:46:54;11.80;99.90
49829;DHT22;35723;51.194;5.112;2023-04-25T10:49:34;11.90;99.90
49829;DHT22;35723;51.194;5.112;2023-04-25T10:52:25;11.90;99.90
49829;DHT22;35723;51.194;5.112;2023-04-25T10:54:56;12.00;99.90
49829;DHT22;35723;51.194;5.112;2023-04-25T10:57:42;12.10;99.90
49829;DHT22;35723;51.194;5.112;2023-04-25T11:00:16;12.20;99.90
49829;DHT22;35723;51.194;5.112;2023-04-25T11:02:42;12.20;99.90
49829;DHT22;35723;51.194;5.112;2023-04-25T11:05:10;12.30;99.90
49829;DHT22;35723;51.194;5.112;2023-04-25T11:10:12;12.40;99.90
49829;DHT22;35723;51.194;5.112;2023-04-25T11:12:39;12.50;99.90
49829;DHT22;35723;51.194;5.112;2023-04-25T11:15:06;12.50;99.90
49829;DHT22;35723;51.194;5.112;2023-04-25T11:17:33;12.60;99.90
49829;DHT22;35723;51.194;5.112;2023-04-25T11:19:59;12.50;99.90
49829;DHT22;35723;51.194;5.112;2023-04-25T11:22:27;12.50;99.90
49829;DHT22;35723;51.194;5.112;2023-04-25T11:24:53;12.50;99.90
49829;DHT22;35723;51.194;5.112;2023-04-25T11:27:19;12.50;99.90
49829;DHT22;35723;51.194;5.112;2023-04-25T11:29:45;12.40;99.90
49829;DHT22;35723;51.194;5.112;2023-04-25T11:32:15;12.40;99.90
49829;DHT22;35723;51.194;5.112;2023-04-25T11:34:43;12.40;99.90
49829;DHT22;35723;51.194;5.112;2023-04-25T11:37:10;12.30;99.90
49829;DHT22;35723;51.194;5.112;2023-04-25T11:39:37;12.20;99.90
49829;DHT22;35723;51.194;5.112;2023-04-25T11:42:04;12.20;99.90
49829;DHT22;35723;51.194;5.112;2023-04-25T11:44:31;12.20;99.90
49829;DHT22;35723;51.194;5.112;2023-04-25T11:46:56;12.20;99.90
49829;DHT22;35723;51.194;5.112;2023-04-25T11:49:22;12.20;99.90
49829;DHT22;35723;51.194;5.112;2023-04-25T11:51:50;12.30;99.90
49829;DHT22;35723;51.194;5.112;2023-04-25T11:54:16;12.40;99.90
49829;DHT22;35723;51.194;5.112;2023-04-25T11:56:45;12.50;99.90
49829;DHT22;35723;51.194;5.112;2023-04-25T11:59:11;12.70;99.90
49829;DHT22;35723;51.194;5.112;2023-04-25T12:01:38;12.70;99.90
49829;DHT22;35723;51.194;5.112;2023-04-25T12:04:18;12.80;99.90
49829;DHT22;35723;51.194;5.112;2023-04-25T12:06:47;13.00;99.90
49829;DHT22;35723;51.194;5.112;2023-04-25T12:09:14;12.90;99.90
49829;DHT22;35723;51.194;5.112;2023-04-25T12:12:00;12.90;99.90
49829;DHT22;35723;51.194;5.112;2023-04-25T12:14:33;13.00;99.90
49829;DHT22;35723;51.194;5.112;2023-04-25T12:17:01;13.00;99.90
49829;DHT22;35723;51.194;5.112;2023-04-25T12:19:35;12.90;99.90
49829;DHT22;35723;51.194;5.112;2023-04-25T12:22:02;13.00;99.90
49829;DHT22;35723;51.194;5.112;2023-04-25T12:24:28;13.00;99.90
49829;DHT22;35723;51.194;5.112;2023-04-25T12:27:03;13.10;99.90
49829;DHT22;35723;51.194;5.112;2023-04-25T12:29:31;13.20;99.90
49829;DHT22;35723;51.194;5.112;2023-04-25T12:31:57;13.30;99.90
49829;DHT22;35723;51.194;5.112;2023-04-25T12:34:24;13.40;99.90
49829;DHT22;35723;51.194;5.112;2023-04-25T12:36:50;13.50;99.90
49829;DHT22;35723;51.194;5.112;2023-04-25T12:39:18;13.50;99.90
49829;DHT22;35723;51.194;5.112;2023-04-25T12:41:45;13.60;99.90
49829;DHT22;35723;51.194;5.112;2023-04-25T12:44:12;13.60;99.90
49829;DHT22;35723;51.194;5.112;2023-04-25T12:46:38;13.70;99.90
49829;DHT22;35723;51.194;5.112;2023-04-25T12:49:04;13.70;99.90
49829;DHT22;35723;51.194;5.112;2023-04-25T12:51:31;13.80;99.90
49829;DHT22;35723;51.194;5.112;2023-04-25T12:53:58;13.70;99.90
49829;DHT22;35723;51.194;5.112;2023-04-25T12:56:25;13.70;99.90
49829;DHT22;35723;51.194;5.112;2023-04-25T12:58:51;13.60;99.90
49829;DHT22;35723;51.194;5.112;2023-04-25T13:01:17;13.60;99.90
49829;DHT22;35723;51.194;5.112;2023-04-25T13:03:43;13.60;99.90
49829;DHT22;35723;51.194;5.112;2023-04-25T13:06:09;13.70;99.90
49829;DHT22;35723;51.194;5.112;2023-04-25T13:08:34;13.80;99.90
49829;DHT22;35723;51.194;5.112;2023-04-25T13:11:02;13.80;99.90
49829;DHT22;35723;51.194;5.112;2023-04-25T13:13:29;13.70;99.90
49829;DHT22;35723;51.194;5.112;2023-04-25T13:15:55;13.70;99.90
49829;DHT22;35723;51.194;5.112;2023-04-25T13:18:21;13.80;99.90
49829;DHT22;35723;51.194;5.112;2023-04-25T13:20:46;13.80;99.90
49829;DHT22;35723;51.194;5.112;2023-04-25T13:23:12;13.80;99.90
49829;DHT22;35723;51.194;5.112;2023-04-25T13:25:38;13.80;99.90
49829;DHT22;35723;51.194;5.112;2023-04-25T13:28:03;13.80;99.90
49829;DHT22;35723;51.194;5.112;2023-04-25T13:30:30;13.70;99.90
49829;DHT22;35723;51.194;5.112;2023-04-25T13:32:55;13.80;99.90
49829;DHT22;35723;51.194;5.112;2023-04-25T13:35:22;13.80;99.90
49829;DHT22;35723;51.194;5.112;2023-04-25T13:37:48;13.80;99.90
49829;DHT22;35723;51.194;5.112;2023-04-25T13:40:14;13.80;99.90
49829;DHT22;35723;51.194;5.112;2023-04-25T13:42:39;13.80;99.90
49829;DHT22;35723;51.194;5.112;2023-04-25T13:45:06;13.80;99.90
49829;DHT22;35723;51.194;5.112;2023-04-25T13:47:33;13.80;99.90
49829;DHT22;35723;51.194;5.112;2023-04-25T13:49:59;13.80;99.90
49829;DHT22;35723;51.194;5.112;2023-04-25T13:52:26;13.60;99.90
49829;DHT22;35723;51.194;5.112;2023-04-25T13:54:52;13.70;99.90
49829;DHT22;35723;51.194;5.112;2023-04-25T13:57:18;13.60;99.90
49829;DHT22;35723;51.194;5.112;2023-04-25T13:59:44;13.60;99.90
49829;DHT22;35723;51.194;5.112;2023-04-25T14:02:11;13.50;99.90
49829;DHT22;35723;51.194;5.112;2023-04-25T14:04:37;13.50;99.90
49829;DHT22;35723;51.194;5.112;2023-04-25T14:07:03;13.50;99.90
49829;DHT22;35723;51.194;5.112;2023-04-25T14:09:30;13.50;99.90
49829;DHT22;35723;51.194;5.112;2023-04-25T14:11:56;13.50;99.90
49829;DHT22;35723;51.194;5.112;2023-04-25T14:14:22;13.50;99.90
49829;DHT22;35723;51.194;5.112;2023-04-25T14:16:48;13.50;99.90
49829;DHT22;35723;51.194;5.112;2023-04-25T14:19:17;13.50;99.90
49829;DHT22;35723;51.194;5.112;2023-04-25T14:21:43;13.50;99.90
49829;DHT22;35723;51.194;5.112;2023-04-25T14:24:09;13.40;99.90
49829;DHT22;35723;51.194;5.112;2023-04-25T14:26:36;13.40;99.90
49829;DHT22;35723;51.194;5.112;2023-04-25T14:29:05;13.40;99.90
49829;DHT22;35723;51.194;5.112;2023-04-25T14:31:34;13.30;99.90
49829;DHT22;35723;51.194;5.112;2023-04-25T14:34:00;13.30;99.90
49829;DHT22;35723;51.194;5.112;2023-04-25T14:36:27;13.30;99.90
49829;DHT22;35723;51.194;5.112;2023-04-25T14:38:53;13.30;99.90
49829;DHT22;35723;51.194;5.112;2023-04-25T14:41:19;13.20;99.90
49829;DHT22;35723;51.194;5.112;2023-04-25T14:43:44;13.30;99.90
49829;DHT22;35723;51.194;5.112;2023-04-25T14:46:10;13.20;99.90
49829;DHT22;35723;51.194;5.112;2023-04-25T14:48:36;13.30;99.90
49829;DHT22;35723;51.194;5.112;2023-04-25T14:51:02;13.30;99.90
49829;DHT22;35723;51.194;5.112;2023-04-25T14:53:28;13.30;99.90
49829;DHT22;35723;51.194;5.112;2023-04-25T14:55:54;13.30;99.90
49829;DHT22;35723;51.194;5.112;2023-04-25T14:58:19;13.30;99.90
49829;DHT22;35723;51.194;5.112;2023-04-25T15:00:46;13.40;99.90
49829;DHT22;35723;51.194;5.112;2023-04-25T15:03:12;13.40;99.90
49829;DHT22;35723;51.194;5.112;2023-04-25T15:05:39;13.40;99.90
49829;DHT22;35723;51.194;5.112;2023-04-25T15:08:05;13.50;99.90
49829;DHT22;35723;51.194;5.112;2023-04-25T15:10:31;13.50;99.90
49829;DHT22;35723;51.194;5.112;2023-04-25T15:12:56;13.50;99.90
49829;DHT22;35723;51.194;5.112;2023-04-25T15:15:22;13.50;99.90
49829;DHT22;35723;51.194;5.112;2023-04-25T15:17:49;13.60;99.90
49829;DHT22;35723;51.194;5.112;2023-04-25T15:20:16;13.60;99.90
49829;DHT22;35723;51.194;5.112;2023-04-25T15:22:43;13.70;99.90
49829;DHT22;35723;51.194;5.112;2023-04-25T15:25:10;13.70;99.90
49829;DHT22;35723;51.194;5.112;2023-04-25T15:27:39;13.60;99.90
49829;DHT22;35723;51.194;5.112;2023-04-25T15:30:14;13.70;99.90
49829;DHT22;35723;51.194;5.112;2023-04-25T15:32:47;13.60;99.90
49829;DHT22;35723;51.194;5.112;2023-04-25T15:35:13;13.60;99.90
49829;DHT22;35723;51.194;5.112;2023-04-25T15:37:40;13.60;99.90
49829;DHT22;35723;51.194;5.112;2023-04-25T15:40:14;13.60;99.90